Time;durP1;ratioP1;P1;durP2;ratioP2;P2;SDS_P1;SDS_P2;PMS_P1;PMS_P2;Temp;Humidity;BMP_temperature;BMP_pressure;BME280_temperature;BME280_humidity;BME280_pressure;Samples;Min_cycle;Max_cycle;Signal;HPM_P1;HPM_P2
2021/01/19 00:00:25;;;;;;;;;65.50;45.50;;;;;-14.10;74.65;101881.00;3725927;37;17927;-65
2021/01/19 00:02:51;;;;;;;;;56.50;40.25;;;;;-14.11;74.68;101874.06;3726055;37;17948;-65
2021/01/19 00:05:18;;;;;;;;;70.00;50.75;;;;;-14.06;74.51;101900.06;3726044;38;17961;-66
2021/01/19 00:07:44;;;;;;;;;79.50;53.50;;;;;-14.21;74.20;101903.50;3726063;37;17936;-64
2021/01/19 00:10:11;;;;;;;;;69.75;52.00;;;;;-14.40;74.49;101886.97;3726003;37;17924;-65
2021/01/19 00:12:39;;;;;;;;;77.25;58.00;;;;;-14.56;74.51;101872.22;3726025;38;17939;-65
2021/01/19 00:15:07;;;;;;;;;67.00;49.25;;;;;-14.37;74.65;101899.09;3726039;38;17922;-69
2021/01/19 00:17:35;;;;;;;;;72.75;57.00;;;;;-14.49;74.61;101873.97;3725920;38;17927;-64
2021/01/19 00:20:01;;;;;;;;;71.25;47.00;;;;;-14.40;74.70;101888.69;3725979;37;17913;-66
2021/01/19 00:22:29;;;;;;;;;70.75;53.50;;;;;-14.48;74.45;101886.09;3726183;38;17901;-66
2021/01/19 00:24:55;;;;;;;;;47.50;37.00;;;;;-14.51;74.35;101890.41;3725961;37;17917;-64
2021/01/19 00:27:21;;;;;;;;;64.50;50.25;;;;;-14.53;74.40;101890.41;3725901;37;17892;-64
2021/01/19 00:29:48;;;;;;;;;69.00;53.50;;;;;-14.51;74.76;101893.00;3726061;38;17906;-63
2021/01/19 00:32:14;;;;;;;;;61.25;48.50;;;;;-14.61;74.41;101884.34;3726059;38;17890;-63
2021/01/19 00:34:40;;;;;;;;;39.75;36.00;;;;;-14.73;74.04;101892.94;3725956;38;17918;-64
2021/01/19 00:37:06;;;;;;;;;68.00;56.75;;;;;-14.86;74.17;101872.94;3725913;38;17876;-63
2021/01/19 00:39:33;;;;;;;;;65.25;48.50;;;;;-14.81;74.17;101888.56;3725908;37;17889;-65
2021/01/19 00:41:59;;;;;;;;;69.50;50.75;;;;;-14.93;74.36;101889.34;3725912;37;17886;-62
2021/01/19 00:44:25;;;;;;;;;63.25;47.00;;;;;-14.99;74.28;101889.31;3725924;38;17879;-63
2021/01/19 00:46:51;;;;;;;;;59.50;47.00;;;;;-14.96;74.63;101880.69;3725743;38;17874;-63
2021/01/19 00:49:19;;;;;;;;;67.25;49.50;;;;;-15.04;74.40;101877.16;3725765;38;17882;-62
2021/01/19 00:51:45;;;;;;;;;44.50;40.75;;;;;-15.27;74.65;101853.69;3725870;37;17860;-64
2021/01/19 00:54:12;;;;;;;;;70.25;50.75;;;;;-15.32;74.44;101863.16;3726012;37;17897;-63
2021/01/19 00:56:43;;;;;;;;;52.75;47.25;;;;;-15.17;75.05;101869.31;3726098;37;17883;-63
2021/01/19 00:59:11;;;;;;;;;34.50;27.25;;;;;-15.27;74.99;101859.75;3725776;37;17874;-64
2021/01/19 01:01:45;;;;;;;;;43.75;39.75;;;;;-15.42;74.98;101820.69;3727882;37;17871;-63
2021/01/19 01:04:12;;;;;;;;;42.25;32.00;;;;;-15.09;74.89;101872.84;3725709;37;17872;-64
2021/01/19 01:06:38;;;;;;;;;64.25;49.00;;;;;-15.10;74.69;101865.03;3726050;37;17869;-63
2021/01/19 01:09:05;;;;;;;;;58.00;45.75;;;;;-15.12;74.88;101867.63;3725836;37;17843;-65
2021/01/19 01:11:44;;;;;;;;;61.00;48.00;;;;;-15.24;74.70;101858.88;3726036;37;17866;-64
2021/01/19 01:14:12;;;;;;;;;61.50;48.50;;;;;-15.35;74.63;101864.00;3725696;38;17856;-64
2021/01/19 01:16:38;;;;;;;;;69.50;50.75;;;;;-15.44;74.63;101876.91;3725795;38;17856;-63
2021/01/19 01:19:06;;;;;;;;;65.25;46.00;;;;;-15.48;74.96;101869.97;3725917;37;17840;-64
2021/01/19 01:21:39;;;;;;;;;64.50;51.25;;;;;-15.63;75.22;101849.16;3726102;38;17825;-65
2021/01/19 01:24:09;;;;;;;;;64.75;48.75;;;;;-15.34;75.33;101860.56;3726077;37;17848;-66
2021/01/19 01:26:35;;;;;;;;;53.50;48.00;;;;;-15.30;75.33;101864.91;3726044;37;17810;-64
2021/01/19 01:29:03;;;;;;;;;61.25;47.00;;;;;-15.23;75.21;101866.69;3725775;38;17847;-65
2021/01/19 01:31:30;;;;;;;;;59.00;48.50;;;;;-15.25;75.27;101865.81;3726079;37;17839;-64
2021/01/19 01:33:56;;;;;;;;;63.25;49.00;;;;;-15.32;75.30;101869.22;3725920;37;17837;-65
2021/01/19 01:36:22;;;;;;;;;66.75;49.50;;;;;-15.32;74.92;101865.75;3725947;37;17800;-67
2021/01/19 01:38:49;;;;;;;;;67.75;52.00;;;;;-15.30;75.22;101859.72;3725820;37;17812;-64
2021/01/19 01:41:17;;;;;;;;;56.50;46.50;;;;;-15.25;75.17;101865.81;3725871;38;17790;-65
2021/01/19 01:43:44;;;;;;;;;63.00;49.50;;;;;-15.17;75.50;101861.53;3725771;37;17802;-64
2021/01/19 01:46:12;;;;;;;;;68.25;48.50;;;;;-15.22;75.31;101868.44;3725944;38;17789;-65
2021/01/19 01:48:43;;;;;;;;;70.25;51.00;;;;;-15.33;75.11;101864.88;3725874;37;17796;-64
2021/01/19 01:51:13;;;;;;;;;62.00;49.25;;;;;-15.53;75.14;101846.56;3725902;37;17786;-65
2021/01/19 01:53:41;;;;;;;;;63.50;48.00;;;;;-15.43;75.12;101868.28;3725987;37;17812;-66
2021/01/19 01:56:09;;;;;;;;;68.50;51.25;;;;;-15.43;75.50;101882.13;3725963;37;17786;-65
2021/01/19 01:58:36;;;;;;;;;66.25;50.75;;;;;-15.50;75.35;101882.91;3725899;38;17802;-64
2021/01/19 02:01:05;;;;;;;;;67.00;51.25;;;;;-15.52;75.16;101888.97;3726131;37;17774;-64
2021/01/19 02:03:32;;;;;;;;;68.75;53.00;;;;;-15.60;75.08;101885.50;3725884;38;17794;-67
2021/01/19 02:05:58;;;;;;;;;79.25;59.25;;;;;-15.85;75.20;101880.09;3725976;37;17777;-65
2021/01/19 02:09:13;;;;;;;;;72.00;53.50;;;;;-15.81;75.31;101897.41;3725892;38;17764;-67
2021/01/19 02:12:00;;;;;;;;;56.00;44.50;;;;;-15.80;75.30;101898.28;3726187;38;17760;-65
2021/01/19 02:15:00;;;;;;;;;78.00;59.00;;;;;-15.87;75.00;101891.28;3726184;37;17789;-65
2021/01/19 02:17:38;;;;;;;;;62.50;50.00;;;;;-15.91;75.24;101886.94;3725972;37;17775;-64
2021/01/19 02:20:54;;;;;;;;;64.00;48.75;;;;;-16.05;75.11;101894.56;3725889;37;17746;-64
2021/01/19 02:23:34;;;;;;;;;49.00;42.25;;;;;-16.18;75.28;101872.00;3725839;37;17773;-64
2021/01/19 02:26:53;;;;;;;;;67.50;48.00;;;;;-16.07;75.63;101904.06;3725930;38;17729;-63
2021/01/19 02:30:09;;;;;;;;;56.75;44.25;;;;;-16.21;75.37;101869.38;3725852;37;17743;-63
2021/01/19 02:33:25;;;;;;;;;62.75;47.50;;;;;-16.08;75.61;101879.84;3725966;38;17765;-63
2021/01/19 02:36:02;;;;;;;;;45.50;40.00;;;;;-16.02;75.45;101884.22;3725928;38;17729;-66
2021/01/19 02:39:08;;;;;;;;;66.75;49.50;;;;;-15.85;75.66;101890.47;3725786;37;17751;-64
2021/01/19 02:41:45;;;;;;;;;66.50;50.75;;;;;-15.89;75.56;101880.03;3725993;38;17736;-67
2021/01/19 02:44:31;;;;;;;;;66.00;49.25;;;;;-15.79;75.81;101890.50;3725968;37;17727;-67
2021/01/19 02:46:59;;;;;;;;;59.50;46.00;;;;;-15.85;75.76;101867.13;3726075;38;17742;-65
2021/01/19 02:49:25;;;;;;;;;56.00;42.50;;;;;-15.68;75.84;101885.44;3726068;37;17727;-64
2021/01/19 02:51:55;;;;;;;;;48.50;43.50;;;;;-15.76;75.33;101871.50;3725837;38;17708;-65
2021/01/19 02:54:22;;;;;;;;;52.00;37.50;;;;;-15.79;75.23;101890.50;3725741;38;17716;-66
2021/01/19 02:57:15;;;;;;;;;46.50;39.50;;;;;-15.99;75.08;101876.50;3725499;38;17727;-63
2021/01/19 03:00:11;;;;;;;;;47.25;38.50;;;;;-15.89;75.58;101882.62;3725737;37;17693;-63
2021/01/19 03:02:40;;;;;;;;;54.50;41.00;;;;;-15.84;75.51;101887.00;3725893;38;17709;-65
2021/01/19 03:05:10;;;;;;;;;58.75;48.50;;;;;-15.79;75.46;101890.50;3725932;38;17688;-64
2021/01/19 03:07:42;;;;;;;;;54.25;46.50;;;;;-15.85;75.65;101887.87;3725930;38;17702;-63
2021/01/19 03:10:10;;;;;;;;;65.75;49.00;;;;;-15.86;75.32;101890.44;3725852;37;17684;-62
2021/01/19 03:12:41;;;;;;;;;68.50;50.25;;;;;-16.15;75.61;101872.03;3725472;38;17682;-65
2021/01/19 03:15:08;;;;;;;;;28.25;21.50;;;;;-16.19;75.35;101872.84;3725498;38;17675;-66
2021/01/19 03:17:35;;;;;;;;;68.25;51.00;;;;;-16.04;75.83;101891.13;3725447;38;17702;-65
2021/01/19 03:20:02;;;;;;;;;71.50;52.50;;;;;-16.03;75.67;101892.00;3725552;37;17679;-67
2021/01/19 03:22:28;;;;;;;;;81.00;53.50;;;;;-16.14;75.62;101881.53;3725495;37;17670;-64
2021/01/19 03:24:54;;;;;;;;;76.00;57.75;;;;;-15.94;76.03;101899.88;3725413;38;17680;-63
2021/01/19 03:27:20;;;;;;;;;52.25;38.25;;;;;-15.80;76.16;101906.94;3726059;38;17683;-64
2021/01/19 03:29:46;;;;;;;;;72.75;55.75;;;;;-15.73;75.87;101905.25;3726262;37;17651;-65
2021/01/19 03:32:13;;;;;;;;;73.25;51.00;;;;;-15.78;75.79;101907.81;3726048;37;17664;-63
2021/01/19 03:34:39;;;;;;;;;49.75;42.25;;;;;-15.86;75.98;101887.84;3726064;38;17650;-64
2021/01/19 03:37:05;;;;;;;;;78.50;54.00;;;;;-15.75;75.96;101904.37;3728286;37;17650;-63
2021/01/19 03:39:32;;;;;;;;;58.00;48.25;;;;;-15.73;76.03;101900.06;3726078;38;17664;-65
2021/01/19 03:41:58;;;;;;;;;69.00;52.50;;;;;-15.88;75.74;101863.63;3726030;37;17644;-64
2021/01/19 03:44:25;;;;;;;;;57.25;47.50;;;;;-15.78;75.77;101905.22;3725789;37;17632;-65
2021/01/19 03:46:51;;;;;;;;;69.00;49.00;;;;;-15.82;75.77;101902.59;3725952;38;17627;-66
2021/01/19 03:49:17;;;;;;;;;83.50;57.25;;;;;-15.83;75.98;101908.63;3725955;37;17625;-65
2021/01/19 03:51:44;;;;;;;;;75.50;54.50;;;;;-15.71;76.01;101894.91;3726005;38;17629;-67
2021/01/19 03:54:10;;;;;;;;;92.50;72.50;;;;;-15.64;76.09;101897.56;3725813;38;17646;-63
2021/01/19 03:56:36;;;;;;;;;76.25;60.00;;;;;-15.59;75.79;101895.00;3726075;38;17631;-62
2021/01/19 03:59:03;;;;;;;;;77.00;52.00;;;;;-15.73;75.69;101881.06;3726005;38;17645;-65
2021/01/19 04:01:29;;;;;;;;;83.25;61.00;;;;;-15.87;75.46;101880.91;3726050;37;17641;-64
2021/01/19 04:03:56;;;;;;;;;69.75;48.75;;;;;-15.90;75.75;101881.75;3726020;37;17625;-63
2021/01/19 04:06:22;;;;;;;;;67.50;52.00;;;;;-15.93;75.80;101881.72;3726022;37;17636;-64
2021/01/19 04:08:48;;;;;;;;;28.50;18.50;;;;;-15.94;75.48;101880.00;3726097;37;17608;-64
2021/01/19 04:11:16;;;;;;;;;64.25;46.00;;;;;-16.02;75.67;101881.63;3725938;37;17595;-63
2021/01/19 04:13:42;;;;;;;;;66.00;49.00;;;;;-16.47;75.36;101830.22;3725905;38;17607;-65
2021/01/19 04:16:08;;;;;;;;;54.75;41.00;;;;;-16.15;75.45;101892.75;3725865;37;17616;-63
2021/01/19 04:18:34;;;;;;;;;60.75;49.00;;;;;-16.14;75.68;101899.69;3725849;37;17574;-64
2021/01/19 04:21:00;;;;;;;;;76.25;51.25;;;;;-16.12;75.70;101892.81;3725793;37;17589;-64
2021/01/19 04:23:26;;;;;;;;;60.25;46.25;;;;;-16.15;75.51;101897.94;3725858;38;17584;-64
2021/01/19 04:25:53;;;;;;;;;65.50;50.75;;;;;-16.10;75.52;101883.28;3725960;38;17572;-64
2021/01/19 04:28:19;;;;;;;;;65.75;53.00;;;;;-16.04;75.87;101882.47;3725901;37;17562;-66
2021/01/19 04:30:47;;;;;;;;;72.50;57.00;;;;;-15.98;75.65;101880.81;3725737;38;17584;-66
2021/01/19 04:33:14;;;;;;;;;73.50;51.50;;;;;-16.14;75.62;101853.91;3725893;37;17561;-64
2021/01/19 04:35:41;;;;;;;;;61.50;49.25;;;;;-16.11;75.47;101876.34;3725965;37;17560;-66
2021/01/19 04:38:08;;;;;;;;;76.75;59.50;;;;;-16.08;75.59;101878.97;3725840;38;17570;-64
2021/01/19 04:40:35;;;;;;;;;69.75;53.00;;;;;-16.12;75.69;101869.47;3725803;37;17580;-65
2021/01/19 04:43:05;;;;;;;;;77.00;60.00;;;;;-16.13;75.89;101867.72;3725951;38;17543;-65
2021/01/19 04:45:33;;;;;;;;;58.00;42.50;;;;;-16.26;75.58;101848.59;3725961;37;17570;-64
2021/01/19 04:48:01;;;;;;;;;71.25;54.75;;;;;-16.26;75.62;101851.19;3725950;37;17548;-63
2021/01/19 04:50:29;;;;;;;;;63.75;54.00;;;;;-16.12;76.08;101865.16;3725812;37;17578;-66
2021/01/19 04:52:58;;;;;;;;;72.75;58.25;;;;;-16.12;75.93;101867.75;3725928;38;17548;-65
2021/01/19 04:55:26;;;;;;;;;74.50;55.00;;;;;-16.12;76.05;101870.34;3725981;37;17570;-63
2021/01/19 04:58:00;;;;;;;;;72.75;56.00;;;;;-16.17;75.71;101877.19;3725833;37;17547;-62
2021/01/19 05:00:35;;;;;;;;;71.00;54.50;;;;;-16.24;75.99;101854.66;3726585;37;18548;-63
2021/01/19 05:03:38;;;;;;;;;83.25;60.50;;;;;-16.88;75.66;101759.91;3726740;38;17552;-64
2021/01/19 05:06:53;;;;;;;;;87.50;65.50;;;;;-16.11;75.89;101886.72;3726034;37;18502;-64
2021/01/19 05:09:22;;;;;;;;;82.75;61.75;;;;;-16.03;75.92;101881.63;3726026;38;18521;-64
2021/01/19 05:11:52;;;;;;;;;75.00;57.50;;;;;-16.03;75.69;101890.28;3726092;37;18518;-63
2021/01/19 05:14:21;;;;;;;;;93.50;66.75;;;;;-16.10;75.49;101885.88;3725787;38;17536;-67
2021/01/19 05:16:49;;;;;;;;;79.50;63.25;;;;;-16.08;76.01;101892.81;3727589;38;18517;-64
2021/01/19 05:19:20;;;;;;;;;86.25;64.50;;;;;-16.05;75.74;101896.28;3729594;37;17527;-63
2021/01/19 05:21:52;;;;;;;;;32.00;22.25;;;;;-15.94;75.96;101892.97;3727450;37;18527;-64
2021/01/19 05:24:18;;;;;;;;;92.50;66.00;;;;;-15.89;76.06;101883.50;3728433;37;18510;-64
2021/01/19 05:26:45;;;;;;;;;81.00;62.25;;;;;-15.87;76.03;101896.47;3727429;37;18512;-64
2021/01/19 05:29:11;;;;;;;;;60.50;48.50;;;;;-15.80;76.00;101891.37;3726369;37;18489;-63
2021/01/19 05:31:37;;;;;;;;;79.75;58.00;;;;;-15.71;76.47;101874.16;3725724;38;18483;-64
2021/01/19 05:34:11;;;;;;;;;78.25;59.00;;;;;-15.57;76.15;101894.13;3725680;37;18474;-65
2021/01/19 05:36:49;;;;;;;;;97.50;70.75;;;;;-15.67;76.02;101866.41;3726225;37;18484;-67
2021/01/19 05:39:18;;;;;;;;;79.25;59.50;;;;;-15.59;75.71;101877.69;3726180;37;18479;-68
2021/01/19 05:41:49;;;;;;;;;85.00;63.75;;;;;-15.62;75.61;101882.00;3726259;37;18504;-67
2021/01/19 05:44:30;;;;;;;;;83.00;63.00;;;;;-15.57;75.77;101882.88;3726103;37;18490;-67
2021/01/19 05:47:02;;;;;;;;;86.25;67.50;;;;;-15.53;76.01;101875.13;3725684;37;18478;-65
2021/01/19 05:49:42;;;;;;;;;89.25;68.00;;;;;-15.63;75.71;101875.97;3725550;37;18484;-64
2021/01/19 05:52:18;;;;;;;;;93.50;66.75;;;;;-15.70;75.80;101863.78;3725680;38;18493;-66
2021/01/19 05:54:50;;;;;;;;;103.25;72.50;;;;;-15.71;75.73;101876.75;3726242;37;18445;-63
2021/01/19 05:57:21;;;;;;;;;84.75;65.50;;;;;-15.81;75.67;101863.69;3726174;37;18486;-66
2021/01/19 05:59:55;;;;;;;;;99.50;72.00;;;;;-15.75;75.70;101852.50;3726106;38;18462;-65
2021/01/19 06:02:23;;;;;;;;;94.75;68.75;;;;;-15.83;75.37;101844.66;3725861;38;18455;-65
2021/01/19 06:04:54;;;;;;;;;84.00;64.00;;;;;-15.95;75.41;101826.41;3726480;37;18456;-63
2021/01/19 06:07:22;;;;;;;;;89.75;66.50;;;;;-15.74;75.58;101867.22;3726527;38;18440;-66
2021/01/19 06:09:50;;;;;;;;;96.00;71.50;;;;;-15.75;75.79;101868.94;3726025;37;18431;-63
2021/01/19 06:12:19;;;;;;;;;94.25;64.50;;;;;-15.82;75.56;101861.09;3728669;37;18435;-64
2021/01/19 06:14:51;;;;;;;;;78.50;62.00;;;;;-15.80;75.61;101865.44;3730478;37;18426;-65
2021/01/19 06:17:22;;;;;;;;;84.50;67.00;;;;;-15.66;76.01;101862.09;3730282;37;18459;-67
2021/01/19 06:19:53;;;;;;;;;81.00;59.50;;;;;-15.61;75.65;101865.59;3726279;38;18470;-68
2021/01/19 06:22:24;;;;;;;;;91.75;66.25;;;;;-15.74;75.49;101849.06;3726218;37;18454;-65
2021/01/19 06:24:56;;;;;;;;;98.25;70.50;;;;;-15.64;75.67;101869.03;3726192;37;18407;-65
2021/01/19 06:27:34;;;;;;;;;91.25;70.25;;;;;-15.56;75.67;101863.87;3726416;37;18412;-66
2021/01/19 06:30:12;;;;;;;;;96.50;69.00;;;;;-15.58;75.47;101865.59;3726166;38;18398;-63
2021/01/19 06:32:48;;;;;;;;;88.00;66.25;;;;;-15.62;75.42;101876.81;3726109;37;18418;-65
2021/01/19 06:35:21;;;;;;;;;96.25;72.00;;;;;-15.77;75.58;101849.91;3726310;37;18406;-68
2021/01/19 06:37:49;;;;;;;;;93.50;68.00;;;;;-15.63;75.75;101877.69;3725942;37;18423;-65
2021/01/19 06:40:21;;;;;;;;;83.25;62.00;;;;;-15.91;75.53;101817.78;3725804;37;18395;-63
2021/01/19 06:43:06;;;;;;;;;81.25;60.00;;;;;-15.74;75.67;101828.31;3725938;37;18420;-64
2021/01/19 06:45:33;;;;;;;;;84.50;64.00;;;;;-15.37;75.65;101870.03;3726121;38;18389;-65
2021/01/19 06:48:02;;;;;;;;;96.50;72.00;;;;;-15.33;75.87;101867.47;3725884;37;18413;-65
2021/01/19 06:50:33;;;;;;;;;81.50;63.00;;;;;-15.38;75.73;101852.72;3725896;37;18378;-65
2021/01/19 06:53:35;;;;;;;;;91.25;70.00;;;;;-15.08;75.87;101868.53;3725786;37;18401;-68
2021/01/19 06:56:22;;;;;;;;;86.00;65.00;;;;;-14.83;76.00;101867.75;3725875;37;18371;-64
2021/01/19 06:58:56;;;;;;;;;94.25;68.00;;;;;-14.82;75.68;101866.91;3726035;37;18385;-71
2021/01/19 07:01:24;;;;;;;;;96.50;70.25;;;;;-14.75;75.63;101866.06;3726018;38;18396;-67
2021/01/19 07:04:13;;;;;;;;;108.50;76.00;;;;;-14.93;75.63;101821.81;3726133;37;18385;-65
2021/01/19 07:07:13;;;;;;;;;100.50;72.75;;;;;-14.49;75.81;101854.91;3726029;38;18378;-69
2021/01/19 07:10:08;;;;;;;;;91.25;69.50;;;;;-14.41;75.96;101846.22;3726300;37;18359;-66
2021/01/19 07:12:55;;;;;;;;;101.25;72.25;;;;;-14.19;75.57;101874.88;3725299;38;18376;-68
2021/01/19 07:15:40;;;;;;;;;82.75;66.00;;;;;-14.04;75.88;101843.72;3725602;37;18363;-69
2021/01/19 07:18:32;;;;;;;;;96.00;72.75;;;;;-14.09;75.44;101801.22;3726018;37;18366;-66
2021/01/19 07:21:09;;;;;;;;;77.00;56.25;;;;;-13.59;75.91;101850.66;3726418;38;18335;-71
2021/01/19 07:24:20;;;;;;;;;57.50;45.50;;;;;-13.72;75.79;101765.66;3725970;38;18345;-72
2021/01/19 07:26:47;;;;;;;;;76.75;60.75;;;;;-13.03;75.63;101856.63;3725735;38;18335;-69
2021/01/19 07:29:16;;;;;;;;;68.00;52.50;;;;;-12.91;75.16;101847.00;3726116;37;18340;-68
2021/01/19 07:31:43;;;;;;;;;66.00;51.75;;;;;-12.77;75.31;101840.03;3725991;37;18331;-67
2021/01/19 07:34:10;;;;;;;;;72.50;52.75;;;;;-12.93;74.44;101814.00;3725959;38;18326;-68
2021/01/19 07:36:37;;;;;;;;;71.00;52.00;;;;;-12.68;74.96;101846.06;3725702;38;18315;-68
2021/01/19 07:39:15;;;;;;;;;67.50;51.25;;;;;-12.79;74.05;101820.91;3725691;37;18345;-67
2021/01/19 07:41:41;;;;;;;;;73.50;54.00;;;;;-12.60;74.19;101839.09;3725460;37;18333;-68
2021/01/19 07:44:18;;;;;;;;;74.00;55.25;;;;;-12.44;74.34;101839.00;3725368;37;18312;-68
2021/01/19 07:46:44;;;;;;;;;81.25;57.75;;;;;-12.23;74.54;101844.97;3725737;37;18325;-70
2021/01/19 07:49:11;;;;;;;;;74.00;57.50;;;;;-12.14;74.23;101837.97;3726061;38;18330;-69
2021/01/19 07:51:47;;;;;;;;;72.25;57.75;;;;;-12.03;74.11;101832.69;3726282;38;18302;-67
2021/01/19 07:54:42;;;;;;;;;72.00;51.75;;;;;-12.98;73.58;101656.84;3726406;37;18315;-66
2021/01/19 07:57:17;;;;;;;;;81.00;57.75;;;;;-12.01;72.78;101832.66;3726073;38;18282;-67
2021/01/19 07:59:45;;;;;;;;;71.75;57.00;;;;;-12.64;72.74;101738.31;3726298;37;18288;-70
2021/01/19 08:02:23;;;;;;;;;74.75;58.25;;;;;-12.00;72.79;101831.78;3726022;38;18311;-69
2021/01/19 08:05:07;;;;;;;;;64.50;51.00;;;;;-12.09;72.85;101827.50;3725977;38;18284;-68
2021/01/19 08:07:43;;;;;;;;;58.50;48.25;;;;;-12.07;73.03;101776.16;3726130;37;18306;-70
2021/01/19 08:10:23;;;;;;;;;59.00;49.00;;;;;-11.51;73.32;101827.88;3726114;38;18293;-68
2021/01/19 08:12:52;;;;;;;;;58.75;48.00;;;;;-11.71;72.54;101756.69;3725998;37;18279;-69
2021/01/19 08:15:26;;;;;;;;;46.25;37.50;;;;;-11.29;72.30;101823.28;3726339;37;18385;-67
2021/01/19 08:17:55;;;;;;;;;58.25;45.00;;;;;-11.22;71.75;101813.66;3726140;37;18304;-68
2021/01/19 08:20:34;;;;;;;;;51.75;42.25;;;;;-11.10;72.00;101817.00;3726224;38;18284;-70
2021/01/19 08:23:17;;;;;;;;;58.00;49.50;;;;;-11.05;71.50;101819.56;3726112;37;18271;-68
2021/01/19 08:25:44;;;;;;;;;61.00;47.75;;;;;-11.13;70.84;101805.72;3726121;37;18290;-70
2021/01/19 08:28:13;;;;;;;;;56.00;46.00;;;;;-10.98;70.75;101823.00;3726384;37;18276;-73
2021/01/19 08:30:40;;;;;;;;;58.50;49.50;;;;;-10.98;70.85;101809.91;3726219;37;18276;-70
2021/01/19 08:33:07;;;;;;;;;51.75;37.25;;;;;-10.94;70.51;101809.00;3726098;38;18252;-68
2021/01/19 08:35:37;;;;;;;;;57.25;43.00;;;;;-10.76;70.20;101825.31;3726235;37;20523;-74
2021/01/19 08:38:03;;;;;;;;;52.25;44.25;;;;;-10.65;69.60;101827.81;3726273;38;20521;-69
2021/01/19 08:40:36;;;;;;;;;58.00;46.00;;;;;-11.40;69.43;101676.25;3726344;37;18246;-71
2021/01/19 08:43:07;;;;;;;;;50.50;39.25;;;;;-10.46;69.53;101831.06;3725073;38;20506;-68
2021/01/19 08:45:38;;;;;;;;;57.00;44.50;;;;;-10.42;69.05;101812.69;3722984;37;20485;-71
2021/01/19 08:48:06;;;;;;;;;68.50;49.25;;;;;-10.51;68.91;101784.03;3726561;38;20514;-70
2021/01/19 08:50:36;;;;;;;;;64.50;49.00;;;;;-10.27;68.85;101808.09;3726075;37;18249;-69
2021/01/19 08:53:13;;;;;;;;;59.25;48.25;;;;;-10.23;68.71;101809.78;3726111;37;18219;-72
2021/01/19 08:55:42;;;;;;;;;60.75;48.25;;;;;-10.27;68.37;101806.34;3726381;37;18220;-69
2021/01/19 08:58:17;;;;;;;;;49.50;37.75;;;;;-10.27;68.22;101803.72;3726766;37;20478;-73
2021/01/19 09:00:44;;;;;;;;;56.00;48.50;;;;;-10.25;68.12;101804.59;3726226;37;18223;-69
2021/01/19 09:03:14;;;;;;;;;54.75;43.00;;;;;-10.00;67.52;101810.31;3725994;37;20459;-68
2021/01/19 09:05:41;;;;;;;;;66.50;47.00;;;;;-10.07;67.49;101783.34;3725903;37;18218;-71
2021/01/19 09:08:32;;;;;;;;;74.00;52.25;;;;;-9.77;67.82;101795.06;3726073;37;18211;-70
2021/01/19 09:11:09;;;;;;;;;61.00;49.25;;;;;-9.68;67.37;101791.44;3726382;38;18216;-69
2021/01/19 09:13:39;;;;;;;;;75.25;58.25;;;;;-9.66;66.65;101780.94;3726115;38;18200;-70
2021/01/19 09:16:06;;;;;;;;;100.50;72.25;;;;;-10.21;66.35;101704.19;3726125;37;18208;-69
2021/01/19 09:18:34;;;;;;;;;87.25;63.25;;;;;-9.73;66.64;101773.16;3726200;37;18188;-70
2021/01/19 09:21:10;;;;;;;;;94.25;69.50;;;;;-9.97;65.98;101750.03;3725993;38;18194;-69
2021/01/19 09:23:37;;;;;;;;;85.25;63.00;;;;;-10.17;66.33;101690.13;3726125;37;18209;-69
2021/01/19 09:26:08;;;;;;;;;86.00;66.00;;;;;-9.86;66.14;101749.81;3726393;38;18195;-70
2021/01/19 09:28:39;;;;;;;;;97.00;73.75;;;;;-9.75;66.05;101753.13;3726272;38;18194;-70
2021/01/19 09:31:17;;;;;;;;;93.00;69.25;;;;;-9.84;66.26;101725.34;3726049;38;18188;-69
2021/01/19 09:33:48;;;;;;;;;101.00;72.50;;;;;-10.15;66.02;101667.41;3726092;37;18178;-72
2021/01/19 09:36:15;;;;;;;;;92.00;69.00;;;;;-9.81;65.80;101722.66;3725910;37;18179;-73
2021/01/19 09:38:44;;;;;;;;;79.25;60.25;;;;;-9.76;65.58;101760.13;3726009;38;18194;-69
2021/01/19 09:41:18;;;;;;;;;81.00;58.50;;;;;-9.84;65.22;101756.78;3726025;37;18191;-68
2021/01/19 09:43:52;;;;;;;;;84.00;63.00;;;;;-9.73;65.85;101756.59;3726189;38;18167;-69
2021/01/19 09:46:24;;;;;;;;;77.50;59.75;;;;;-9.62;65.73;101753.78;3725885;38;18170;-70
2021/01/19 09:48:57;;;;;;;;;83.50;63.50;;;;;-9.46;65.45;101750.00;3726178;37;18156;-70
2021/01/19 09:51:30;;;;;;;;;80.25;59.00;;;;;-9.39;65.33;101754.25;3726186;37;18149;-69
2021/01/19 09:53:58;;;;;;;;;72.25;57.50;;;;;-9.46;65.08;101734.28;3726022;37;18156;-71
2021/01/19 09:56:25;;;;;;;;;83.25;63.00;;;;;-9.18;65.10;101764.31;3726738;37;18486;-72
2021/01/19 09:59:10;;;;;;;;;79.00;61.00;;;;;-9.25;64.46;101757.44;3726685;38;18145;-73
2021/01/19 10:01:36;;;;;;;;;78.25;56.50;;;;;-9.99;63.67;101660.16;3726165;38;18144;-71
2021/01/19 10:04:02;;;;;;;;;72.25;52.75;;;;;-9.63;64.13;101724.09;3726036;37;18152;-71
2021/01/19 10:06:29;;;;;;;;;58.25;48.25;;;;;-9.29;64.18;101763.62;3726102;38;18131;-73
2021/01/19 10:08:56;;;;;;;;;67.50;53.00;;;;;-9.30;64.58;101730.47;3726275;37;18120;-71
2021/01/19 10:11:30;;;;;;;;;67.00;49.50;;;;;-9.10;63.79;101759.78;3726105;37;18146;-72
2021/01/19 10:13:56;;;;;;;;;67.00;48.00;;;;;-9.08;64.15;101731.78;3726769;37;18143;-71
2021/01/19 10:16:28;;;;;;;;;57.25;48.00;;;;;-9.26;63.80;101682.31;3726882;38;18147;-73
2021/01/19 10:18:54;;;;;;;;;50.50;43.25;;;;;-8.99;64.19;101706.25;3726602;38;20374;-69
2021/01/19 10:21:31;;;;;;;;;54.25;45.50;;;;;-8.81;64.06;101725.06;3726185;38;20383;-71
2021/01/19 10:23:58;;;;;;;;;63.00;49.50;;;;;-9.02;63.09;101676.56;3726347;38;20363;-71
2021/01/19 10:26:28;;;;;;;;;75.00;52.50;;;;;-8.75;63.14;101705.72;3726387;37;18108;-71
2021/01/19 10:28:58;;;;;;;;;62.75;47.50;;;;;-8.60;63.70;101694.87;3726304;38;18113;-67
2021/01/19 10:31:28;;;;;;;;;72.00;49.00;;;;;-8.88;62.71;101643.94;3725719;38;20359;-71
2021/01/19 10:34:02;;;;;;;;;59.50;46.00;;;;;-8.47;63.05;101692.84;3725937;38;20358;-70
2021/01/19 10:36:33;;;;;;;;;49.25;43.25;;;;;-9.04;62.08;101593.59;3726318;37;20364;-71
2021/01/19 10:39:10;;;;;;;;;60.00;41.50;;;;;-8.51;62.68;101676.31;3726327;37;20359;-74
2021/01/19 10:41:36;;;;;;;;;58.50;45.25;;;;;-9.40;61.97;101511.41;3726498;38;20334;-71
2021/01/19 10:44:03;;;;;;;;;44.00;43.25;;;;;-8.58;62.17;101656.34;3726373;37;20342;-69
2021/01/19 10:46:31;;;;;;;;;59.75;48.00;;;;;-8.61;61.44;101666.91;3726681;37;20311;-69
2021/01/19 10:49:12;;;;;;;;;60.25;44.50;;;;;-8.50;62.22;101683.28;3726232;38;20351;-71
2021/01/19 10:51:40;;;;;;;;;56.00;48.00;;;;;-8.35;61.68;101671.56;3727872;38;20330;-70
2021/01/19 10:54:11;;;;;;;;;55.25;44.25;;;;;-8.21;61.62;101655.41;3726611;38;20336;-71
2021/01/19 10:56:40;;;;;;;;;64.00;45.00;;;;;-8.08;61.30;101654.22;3726763;37;20326;-69
2021/01/19 10:59:07;;;;;;;;;48.75;39.25;;;;;-8.08;61.24;101651.59;3726255;37;20334;-69
2021/01/19 11:01:34;;;;;;;;;66.50;49.00;;;;;-7.92;61.06;101652.06;3726223;38;20321;-72
2021/01/19 11:04:01;;;;;;;;;63.00;52.00;;;;;-8.33;60.97;101571.75;3726078;38;20312;-72
2021/01/19 11:06:37;;;;;;;;;63.75;50.00;;;;;-7.77;60.96;101644.59;3726113;37;20320;-70
2021/01/19 11:09:05;;;;;;;;;63.75;50.25;;;;;-7.66;60.85;101646.94;3726593;38;20305;-68
2021/01/19 11:11:34;;;;;;;;;70.75;53.00;;;;;-7.60;60.77;101644.16;3726423;37;20289;-74
2021/01/19 11:14:04;;;;;;;;;69.75;53.75;;;;;-7.76;60.01;101620.06;3726476;37;20286;-69
2021/01/19 11:16:51;;;;;;;;;72.25;54.00;;;;;-7.61;60.19;101642.44;3726130;38;18032;-68
2021/01/19 11:19:17;;;;;;;;;72.75;56.00;;;;;-7.51;60.24;101658.81;3726636;37;20279;-69
2021/01/19 11:21:43;;;;;;;;;69.50;46.00;;;;;-7.47;59.78;101642.06;3726199;38;18032;-69
2021/01/19 11:24:12;;;;;;;;;68.75;49.75;;;;;-7.47;59.54;101629.78;3727151;37;20273;-72